sensor_id;sensor_type;location;lat;lon;timestamp;P1;durP1;ratioP1;P2;durP2;ratioP2
20597;SDS011;10457;48.770;11.446;2022-08-21T00:04:43;10.68;;;7.63;;
20597;SDS011;10457;48.770;11.446;2022-08-21T00:10:06;9.80;;;6.28;;
20597;SDS011;10457;48.770;11.446;2022-08-21T00:15:30;8.60;;;6.50;;
20597;SDS011;10457;48.770;11.446;2022-08-21T00:20:55;8.25;;;6.50;;
20597;SDS011;10457;48.770;11.446;2022-08-21T00:26:16;7.38;;;6.18;;
20597;SDS011;10457;48.770;11.446;2022-08-21T00:31:40;7.43;;;5.55;;
20597;SDS011;10457;48.770;11.446;2022-08-21T00:37:01;7.95;;;6.38;;
20597;SDS011;10457;48.770;11.446;2022-08-21T00:42:23;10.00;;;6.60;;
20597;SDS011;10457;48.770;11.446;2022-08-21T00:47:47;11.20;;;6.90;;
20597;SDS011;10457;48.770;11.446;2022-08-21T00:53:09;8.55;;;6.97;;
20597;SDS011;10457;48.770;11.446;2022-08-21T00:58:33;10.15;;;8.45;;
20597;SDS011;10457;48.770;11.446;2022-08-21T01:03:57;10.80;;;8.80;;
20597;SDS011;10457;48.770;11.446;2022-08-21T01:09:19;12.00;;;9.52;;
20597;SDS011;10457;48.770;11.446;2022-08-21T01:14:41;19.08;;;13.15;;
20597;SDS011;10457;48.770;11.446;2022-08-21T01:20:06;34.08;;;19.20;;
20597;SDS011;10457;48.770;11.446;2022-08-21T01:25:33;50.47;;;27.33;;
20597;SDS011;10457;48.770;11.446;2022-08-21T01:30:55;45.90;;;26.55;;
20597;SDS011;10457;48.770;11.446;2022-08-21T01:36:17;35.50;;;23.50;;
20597;SDS011;10457;48.770;11.446;2022-08-21T01:41:40;36.92;;;21.50;;
20597;SDS011;10457;48.770;11.446;2022-08-21T01:47:03;32.40;;;21.63;;
20597;SDS011;10457;48.770;11.446;2022-08-21T01:52:28;32.42;;;21.17;;
20597;SDS011;10457;48.770;11.446;2022-08-21T01:57:52;31.25;;;19.23;;
20597;SDS011;10457;48.770;11.446;2022-08-21T02:03:13;28.23;;;18.23;;
20597;SDS011;10457;48.770;11.446;2022-08-21T02:08:34;23.30;;;17.55;;
20597;SDS011;10457;48.770;11.446;2022-08-21T02:13:58;24.52;;;15.93;;
20597;SDS011;10457;48.770;11.446;2022-08-21T02:19:19;21.33;;;14.13;;
20597;SDS011;10457;48.770;11.446;2022-08-21T02:24:41;19.67;;;14.52;;
20597;SDS011;10457;48.770;11.446;2022-08-21T02:30:05;20.83;;;13.23;;
20597;SDS011;10457;48.770;11.446;2022-08-21T02:35:28;21.35;;;13.95;;
20597;SDS011;10457;48.770;11.446;2022-08-21T02:40:50;18.00;;;12.93;;
20597;SDS011;10457;48.770;11.446;2022-08-21T02:46:15;23.27;;;13.20;;
20597;SDS011;10457;48.770;11.446;2022-08-21T02:51:39;18.58;;;13.65;;
20597;SDS011;10457;48.770;11.446;2022-08-21T02:57:01;18.27;;;13.75;;
20597;SDS011;10457;48.770;11.446;2022-08-21T03:02:24;20.30;;;12.93;;
20597;SDS011;10457;48.770;11.446;2022-08-21T03:07:46;16.95;;;11.73;;
20597;SDS011;10457;48.770;11.446;2022-08-21T03:13:08;18.38;;;12.23;;
20597;SDS011;10457;48.770;11.446;2022-08-21T03:18:31;13.65;;;9.80;;
20597;SDS011;10457;48.770;11.446;2022-08-21T03:23:54;13.65;;;10.68;;
20597;SDS011;10457;48.770;11.446;2022-08-21T03:29:15;15.00;;;10.45;;
20597;SDS011;10457;48.770;11.446;2022-08-21T03:34:38;13.13;;;10.35;;
20597;SDS011;10457;48.770;11.446;2022-08-21T03:40:00;13.80;;;10.68;;
20597;SDS011;10457;48.770;11.446;2022-08-21T03:45:22;12.85;;;10.43;;
20597;SDS011;10457;48.770;11.446;2022-08-21T03:50:45;12.40;;;10.38;;
20597;SDS011;10457;48.770;11.446;2022-08-21T03:56:08;16.02;;;11.05;;
20597;SDS011;10457;48.770;11.446;2022-08-21T04:01:30;17.13;;;11.38;;
20597;SDS011;10457;48.770;11.446;2022-08-21T04:06:54;17.05;;;11.68;;
20597;SDS011;10457;48.770;11.446;2022-08-21T04:12:16;15.15;;;11.80;;
20597;SDS011;10457;48.770;11.446;2022-08-21T04:17:38;18.63;;;11.77;;
20597;SDS011;10457;48.770;11.446;2022-08-21T04:23:01;23.27;;;12.32;;
20597;SDS011;10457;48.770;11.446;2022-08-21T04:28:24;15.45;;;11.88;;
20597;SDS011;10457;48.770;11.446;2022-08-21T04:33:49;18.27;;;13.20;;
20597;SDS011;10457;48.770;11.446;2022-08-21T04:39:12;15.65;;;12.23;;
20597;SDS011;10457;48.770;11.446;2022-08-21T04:44:33;17.20;;;11.80;;
20597;SDS011;10457;48.770;11.446;2022-08-21T04:49:55;14.18;;;11.77;;
20597;SDS011;10457;48.770;11.446;2022-08-21T04:55:19;13.80;;;12.18;;
20597;SDS011;10457;48.770;11.446;2022-08-21T05:00:42;17.40;;;11.85;;
20597;SDS011;10457;48.770;11.446;2022-08-21T05:06:06;16.58;;;12.60;;
20597;SDS011;10457;48.770;11.446;2022-08-21T05:11:31;15.00;;;12.23;;
20597;SDS011;10457;48.770;11.446;2022-08-21T05:16:54;15.95;;;10.88;;
20597;SDS011;10457;48.770;11.446;2022-08-21T05:22:19;14.52;;;10.98;;
20597;SDS011;10457;48.770;11.446;2022-08-21T05:27:43;13.98;;;11.20;;
20597;SDS011;10457;48.770;11.446;2022-08-21T05:33:05;13.70;;;11.20;;
20597;SDS011;10457;48.770;11.446;2022-08-21T05:38:27;11.95;;;9.95;;
20597;SDS011;10457;48.770;11.446;2022-08-21T05:43:49;10.55;;;9.40;;
20597;SDS011;10457;48.770;11.446;2022-08-21T05:49:11;9.43;;;8.43;;
20597;SDS011;10457;48.770;11.446;2022-08-21T05:54:32;10.73;;;8.80;;
20597;SDS011;10457;48.770;11.446;2022-08-21T05:59:55;11.60;;;8.57;;
20597;SDS011;10457;48.770;11.446;2022-08-21T06:05:17;9.95;;;8.32;;
20597;SDS011;10457;48.770;11.446;2022-08-21T06:10:39;8.38;;;7.47;;
20597;SDS011;10457;48.770;11.446;2022-08-21T06:16:03;10.55;;;7.70;;
20597;SDS011;10457;48.770;11.446;2022-08-21T06:21:28;9.18;;;7.53;;
20597;SDS011;10457;48.770;11.446;2022-08-21T06:26:49;8.82;;;7.85;;
20597;SDS011;10457;48.770;11.446;2022-08-21T06:32:12;9.98;;;8.98;;
20597;SDS011;10457;48.770;11.446;2022-08-21T06:37:34;10.80;;;9.70;;
20597;SDS011;10457;48.770;11.446;2022-08-21T06:42:56;11.73;;;10.55;;
20597;SDS011;10457;48.770;11.446;2022-08-21T06:48:19;13.25;;;10.38;;
20597;SDS011;10457;48.770;11.446;2022-08-21T06:53:41;12.73;;;11.40;;
20597;SDS011;10457;48.770;11.446;2022-08-21T06:59:03;13.50;;;12.07;;
20597;SDS011;10457;48.770;11.446;2022-08-21T07:04:26;13.82;;;12.35;;
20597;SDS011;10457;48.770;11.446;2022-08-21T07:09:47;14.00;;;12.07;;
20597;SDS011;10457;48.770;11.446;2022-08-21T07:15:09;17.38;;;13.52;;
20597;SDS011;10457;48.770;11.446;2022-08-21T07:20:33;14.48;;;12.98;;
20597;SDS011;10457;48.770;11.446;2022-08-21T07:25:55;17.85;;;12.98;;
20597;SDS011;10457;48.770;11.446;2022-08-21T07:31:17;17.02;;;13.77;;
20597;SDS011;10457;48.770;11.446;2022-08-21T07:36:42;14.70;;;12.80;;
20597;SDS011;10457;48.770;11.446;2022-08-21T07:42:04;16.15;;;13.38;;
20597;SDS011;10457;48.770;11.446;2022-08-21T07:47:26;14.75;;;13.25;;
20597;SDS011;10457;48.770;11.446;2022-08-21T07:52:49;19.85;;;16.50;;
20597;SDS011;10457;48.770;11.446;2022-08-21T07:58:10;16.65;;;14.75;;
20597;SDS011;10457;48.770;11.446;2022-08-21T08:03:32;15.93;;;14.13;;
20597;SDS011;10457;48.770;11.446;2022-08-21T08:08:55;13.57;;;11.52;;
20597;SDS011;10457;48.770;11.446;2022-08-21T08:14:16;12.25;;;10.50;;
20597;SDS011;10457;48.770;11.446;2022-08-21T08:19:38;10.18;;;8.38;;
20597;SDS011;10457;48.770;11.446;2022-08-21T08:25:01;9.60;;;8.70;;
20597;SDS011;10457;48.770;11.446;2022-08-21T08:30:24;11.15;;;9.95;;
20597;SDS011;10457;48.770;11.446;2022-08-21T08:35:46;13.93;;;9.70;;
20597;SDS011;10457;48.770;11.446;2022-08-21T08:41:13;10.18;;;9.07;;
20597;SDS011;10457;48.770;11.446;2022-08-21T08:46:39;11.18;;;9.88;;
20597;SDS011;10457;48.770;11.446;2022-08-21T08:52:05;9.73;;;8.30;;
20597;SDS011;10457;48.770;11.446;2022-08-21T08:57:36;10.35;;;9.07;;
20597;SDS011;10457;48.770;11.446;2022-08-21T09:02:59;10.18;;;8.82;;
20597;SDS011;10457;48.770;11.446;2022-08-21T09:14:12;9.95;;;8.40;;
20597;SDS011;10457;48.770;11.446;2022-08-21T09:19:48;10.95;;;8.65;;
20597;SDS011;10457;48.770;11.446;2022-08-21T09:25:22;8.82;;;7.85;;
20597;SDS011;10457;48.770;11.446;2022-08-21T09:30:49;9.13;;;8.15;;
20597;SDS011;10457;48.770;11.446;2022-08-21T09:36:22;9.32;;;8.32;;
20597;SDS011;10457;48.770;11.446;2022-08-21T09:41:54;9.77;;;7.80;;
20597;SDS011;10457;48.770;11.446;2022-08-21T09:47:19;8.15;;;7.38;;
20597;SDS011;10457;48.770;11.446;2022-08-21T09:52:46;8.70;;;7.78;;
20597;SDS011;10457;48.770;11.446;2022-08-21T09:58:11;9.18;;;8.27;;
20597;SDS011;10457;48.770;11.446;2022-08-21T10:03:35;9.93;;;8.90;;
20597;SDS011;10457;48.770;11.446;2022-08-21T10:09:03;9.20;;;8.27;;
20597;SDS011;10457;48.770;11.446;2022-08-21T10:14:36;8.82;;;8.00;;
20597;SDS011;10457;48.770;11.446;2022-08-21T10:20:11;7.10;;;6.40;;
20597;SDS011;10457;48.770;11.446;2022-08-21T10:25:41;6.82;;;6.22;;
20597;SDS011;10457;48.770;11.446;2022-08-21T10:31:11;6.85;;;6.18;;
20597;SDS011;10457;48.770;11.446;2022-08-21T10:36:44;8.23;;;6.22;;
20597;SDS011;10457;48.770;11.446;2022-08-21T10:42:22;6.57;;;5.87;;
20597;SDS011;10457;48.770;11.446;2022-08-21T10:47:54;5.72;;;5.22;;
20597;SDS011;10457;48.770;11.446;2022-08-21T10:59:22;5.43;;;4.90;;
20597;SDS011;10457;48.770;11.446;2022-08-21T11:04:50;7.05;;;6.28;;
20597;SDS011;10457;48.770;11.446;2022-08-21T11:10:22;4.18;;;3.88;;
20597;SDS011;10457;48.770;11.446;2022-08-21T11:15:52;4.38;;;4.07;;
20597;SDS011;10457;48.770;11.446;2022-08-21T11:21:28;5.28;;;4.78;;
20597;SDS011;10457;48.770;11.446;2022-08-21T11:26:59;8.63;;;5.10;;
20597;SDS011;10457;48.770;11.446;2022-08-21T11:32:38;4.25;;;3.95;;
20597;SDS011;10457;48.770;11.446;2022-08-21T11:38:31;4.38;;;3.95;;
20597;SDS011;10457;48.770;11.446;2022-08-21T11:44:02;4.03;;;3.72;;
20597;SDS011;10457;48.770;11.446;2022-08-21T11:49:39;11.27;;;4.65;;
20597;SDS011;10457;48.770;11.446;2022-08-21T11:55:12;4.68;;;4.28;;
20597;SDS011;10457;48.770;11.446;2022-08-21T12:00:45;6.57;;;5.63;;
20597;SDS011;10457;48.770;11.446;2022-08-21T12:06:14;6.72;;;5.75;;
20597;SDS011;10457;48.770;11.446;2022-08-21T12:11:45;6.95;;;6.25;;
20597;SDS011;10457;48.770;11.446;2022-08-21T12:17:18;8.02;;;6.65;;
20597;SDS011;10457;48.770;11.446;2022-08-21T12:22:47;7.55;;;6.85;;
20597;SDS011;10457;48.770;11.446;2022-08-21T12:28:14;5.75;;;5.15;;
20597;SDS011;10457;48.770;11.446;2022-08-21T12:33:47;5.30;;;4.68;;
20597;SDS011;10457;48.770;11.446;2022-08-21T12:39:15;4.90;;;4.50;;
20597;SDS011;10457;48.770;11.446;2022-08-21T12:44:43;4.00;;;3.03;;
20597;SDS011;10457;48.770;11.446;2022-08-21T12:50:11;4.93;;;3.47;;
20597;SDS011;10457;48.770;11.446;2022-08-21T12:55:47;3.00;;;2.80;;
20597;SDS011;10457;48.770;11.446;2022-08-21T13:01:11;4.05;;;2.80;;
20597;SDS011;10457;48.770;11.446;2022-08-21T13:06:43;4.10;;;3.53;;
20597;SDS011;10457;48.770;11.446;2022-08-21T13:12:11;3.88;;;3.38;;
20597;SDS011;10457;48.770;11.446;2022-08-21T13:17:34;3.90;;;3.35;;
20597;SDS011;10457;48.770;11.446;2022-08-21T13:23:01;3.17;;;2.97;;
20597;SDS011;10457;48.770;11.446;2022-08-21T13:28:24;3.33;;;2.80;;
20597;SDS011;10457;48.770;11.446;2022-08-21T13:33:57;5.30;;;3.25;;
20597;SDS011;10457;48.770;11.446;2022-08-21T13:39:20;3.60;;;3.28;;
20597;SDS011;10457;48.770;11.446;2022-08-21T13:44:42;4.10;;;3.75;;
20597;SDS011;10457;48.770;11.446;2022-08-21T13:50:06;4.20;;;3.85;;
20597;SDS011;10457;48.770;11.446;2022-08-21T13:55:38;6.40;;;3.65;;
20597;SDS011;10457;48.770;11.446;2022-08-21T14:01:02;6.70;;;4.65;;
20597;SDS011;10457;48.770;11.446;2022-08-21T14:06:25;4.82;;;3.65;;
20597;SDS011;10457;48.770;11.446;2022-08-21T14:11:49;4.05;;;3.72;;
20597;SDS011;10457;48.770;11.446;2022-08-21T14:17:12;4.43;;;3.72;;
20597;SDS011;10457;48.770;11.446;2022-08-21T14:22:47;4.13;;;3.72;;
20597;SDS011;10457;48.770;11.446;2022-08-21T14:28:14;4.50;;;3.88;;
20597;SDS011;10457;48.770;11.446;2022-08-21T14:33:41;4.10;;;3.78;;
20597;SDS011;10457;48.770;11.446;2022-08-21T14:39:03;7.63;;;3.42;;
20597;SDS011;10457;48.770;11.446;2022-08-21T14:44:27;3.80;;;3.38;;
20597;SDS011;10457;48.770;11.446;2022-08-21T14:49:48;6.72;;;3.65;;
20597;SDS011;10457;48.770;11.446;2022-08-21T14:55:14;9.05;;;3.38;;
20597;SDS011;10457;48.770;11.446;2022-08-21T15:00:38;4.47;;;3.17;;
20597;SDS011;10457;48.770;11.446;2022-08-21T15:06:00;4.13;;;3.05;;
20597;SDS011;10457;48.770;11.446;2022-08-21T15:11:23;3.78;;;3.47;;
20597;SDS011;10457;48.770;11.446;2022-08-21T15:16:47;3.63;;;2.70;;
20597;SDS011;10457;48.770;11.446;2022-08-21T15:22:09;5.53;;;3.50;;
20597;SDS011;10457;48.770;11.446;2022-08-21T15:27:30;3.60;;;3.10;;
20597;SDS011;10457;48.770;11.446;2022-08-21T15:32:54;3.38;;;3.08;;
20597;SDS011;10457;48.770;11.446;2022-08-21T15:38:15;4.53;;;3.05;;
20597;SDS011;10457;48.770;11.446;2022-08-21T15:43:39;4.70;;;3.85;;
20597;SDS011;10457;48.770;11.446;2022-08-21T15:49:06;4.38;;;2.95;;
20597;SDS011;10457;48.770;11.446;2022-08-21T15:54:28;3.95;;;3.60;;
20597;SDS011;10457;48.770;11.446;2022-08-21T15:59:50;4.03;;;3.63;;
20597;SDS011;10457;48.770;11.446;2022-08-21T16:05:16;3.35;;;3.03;;
20597;SDS011;10457;48.770;11.446;2022-08-21T16:10:38;2.72;;;2.53;;
20597;SDS011;10457;48.770;11.446;2022-08-21T16:16:00;3.58;;;3.22;;
20597;SDS011;10457;48.770;11.446;2022-08-21T16:21:24;4.80;;;3.40;;
20597;SDS011;10457;48.770;11.446;2022-08-21T16:26:45;2.83;;;2.63;;
20597;SDS011;10457;48.770;11.446;2022-08-21T16:32:08;3.30;;;3.00;;
20597;SDS011;10457;48.770;11.446;2022-08-21T16:37:32;4.30;;;3.90;;
20597;SDS011;10457;48.770;11.446;2022-08-21T16:42:53;3.33;;;2.67;;
20597;SDS011;10457;48.770;11.446;2022-08-21T16:48:15;2.97;;;2.78;;
20597;SDS011;10457;48.770;11.446;2022-08-21T16:53:38;3.42;;;3.13;;
20597;SDS011;10457;48.770;11.446;2022-08-21T16:58:59;3.53;;;2.85;;
20597;SDS011;10457;48.770;11.446;2022-08-21T17:04:21;4.30;;;3.05;;
20597;SDS011;10457;48.770;11.446;2022-08-21T17:09:46;3.25;;;2.85;;
20597;SDS011;10457;48.770;11.446;2022-08-21T17:15:08;3.17;;;2.92;;
20597;SDS011;10457;48.770;11.446;2022-08-21T17:20:37;4.22;;;3.00;;
20597;SDS011;10457;48.770;11.446;2022-08-21T17:26:00;3.65;;;2.88;;
20597;SDS011;10457;48.770;11.446;2022-08-21T17:31:22;4.40;;;3.88;;
20597;SDS011;10457;48.770;11.446;2022-08-21T17:36:44;4.30;;;3.90;;
20597;SDS011;10457;48.770;11.446;2022-08-21T17:42:07;3.63;;;3.33;;
20597;SDS011;10457;48.770;11.446;2022-08-21T17:47:33;4.50;;;3.47;;
20597;SDS011;10457;48.770;11.446;2022-08-21T17:52:54;11.15;;;5.15;;
20597;SDS011;10457;48.770;11.446;2022-08-21T17:58:17;3.78;;;3.47;;
20597;SDS011;10457;48.770;11.446;2022-08-21T18:03:39;4.95;;;3.50;;
20597;SDS011;10457;48.770;11.446;2022-08-21T18:09:00;5.15;;;4.00;;
20597;SDS011;10457;48.770;11.446;2022-08-21T18:14:25;4.22;;;3.78;;
20597;SDS011;10457;48.770;11.446;2022-08-21T18:19:49;3.85;;;3.47;;
20597;SDS011;10457;48.770;11.446;2022-08-21T18:25:11;4.80;;;4.22;;
20597;SDS011;10457;48.770;11.446;2022-08-21T18:30:36;5.97;;;3.75;;
20597;SDS011;10457;48.770;11.446;2022-08-21T18:36:00;11.35;;;6.70;;
20597;SDS011;10457;48.770;11.446;2022-08-21T18:41:21;7.90;;;7.10;;
20597;SDS011;10457;48.770;11.446;2022-08-21T18:46:45;8.40;;;6.60;;
20597;SDS011;10457;48.770;11.446;2022-08-21T18:52:11;5.85;;;5.25;;
20597;SDS011;10457;48.770;11.446;2022-08-21T18:57:34;6.78;;;5.53;;
20597;SDS011;10457;48.770;11.446;2022-08-21T19:03:00;6.68;;;4.85;;
20597;SDS011;10457;48.770;11.446;2022-08-21T19:08:22;8.68;;;6.50;;
20597;SDS011;10457;48.770;11.446;2022-08-21T19:13:45;6.63;;;5.18;;
20597;SDS011;10457;48.770;11.446;2022-08-21T19:19:10;8.38;;;5.53;;
20597;SDS011;10457;48.770;11.446;2022-08-21T19:24:32;6.57;;;5.35;;
20597;SDS011;10457;48.770;11.446;2022-08-21T19:29:54;6.55;;;5.65;;
20597;SDS011;10457;48.770;11.446;2022-08-21T19:35:17;6.60;;;4.68;;
20597;SDS011;10457;48.770;11.446;2022-08-21T19:40:39;7.47;;;5.65;;
20597;SDS011;10457;48.770;11.446;2022-08-21T19:46:00;9.57;;;6.20;;
20597;SDS011;10457;48.770;11.446;2022-08-21T19:51:23;6.22;;;5.03;;
20597;SDS011;10457;48.770;11.446;2022-08-21T19:56:45;6.95;;;5.45;;
20597;SDS011;10457;48.770;11.446;2022-08-21T20:02:08;6.25;;;5.65;;
20597;SDS011;10457;48.770;11.446;2022-08-21T20:07:32;9.63;;;5.47;;
20597;SDS011;10457;48.770;11.446;2022-08-21T20:12:55;8.55;;;5.10;;
20597;SDS011;10457;48.770;11.446;2022-08-21T20:18:17;6.07;;;5.25;;
20597;SDS011;10457;48.770;11.446;2022-08-21T20:23:40;7.93;;;7.10;;
20597;SDS011;10457;48.770;11.446;2022-08-21T20:29:02;8.13;;;7.00;;
20597;SDS011;10457;48.770;11.446;2022-08-21T20:34:24;12.70;;;6.07;;
20597;SDS011;10457;48.770;11.446;2022-08-21T20:39:47;8.18;;;6.18;;
20597;SDS011;10457;48.770;11.446;2022-08-21T20:45:09;10.07;;;6.13;;
20597;SDS011;10457;48.770;11.446;2022-08-21T20:50:33;7.45;;;6.35;;
20597;SDS011;10457;48.770;11.446;2022-08-21T20:55:58;6.32;;;5.40;;
20597;SDS011;10457;48.770;11.446;2022-08-21T21:01:23;11.27;;;6.70;;
20597;SDS011;10457;48.770;11.446;2022-08-21T21:06:45;11.75;;;6.85;;
20597;SDS011;10457;48.770;11.446;2022-08-21T21:12:11;12.25;;;7.25;;
20597;SDS011;10457;48.770;11.446;2022-08-21T21:17:42;10.52;;;7.30;;
20597;SDS011;10457;48.770;11.446;2022-08-21T21:23:15;8.70;;;6.38;;
20597;SDS011;10457;48.770;11.446;2022-08-21T21:28:46;11.05;;;7.10;;
20597;SDS011;10457;48.770;11.446;2022-08-21T21:34:20;10.32;;;7.53;;
20597;SDS011;10457;48.770;11.446;2022-08-21T21:39:45;10.25;;;6.55;;
20597;SDS011;10457;48.770;11.446;2022-08-21T21:45:23;13.65;;;7.72;;
20597;SDS011;10457;48.770;11.446;2022-08-21T21:50:51;9.93;;;7.32;;
20597;SDS011;10457;48.770;11.446;2022-08-21T21:56:18;11.85;;;7.57;;
20597;SDS011;10457;48.770;11.446;2022-08-21T22:02:00;8.65;;;7.07;;
20597;SDS011;10457;48.770;11.446;2022-08-21T22:07:27;10.43;;;7.60;;
20597;SDS011;10457;48.770;11.446;2022-08-21T22:13:00;8.45;;;6.47;;
20597;SDS011;10457;48.770;11.446;2022-08-21T22:18:38;9.32;;;7.32;;
20597;SDS011;10457;48.770;11.446;2022-08-21T22:24:05;12.27;;;8.02;;
20597;SDS011;10457;48.770;11.446;2022-08-21T22:29:42;9.05;;;7.07;;
20597;SDS011;10457;48.770;11.446;2022-08-21T22:35:13;7.85;;;6.80;;
20597;SDS011;10457;48.770;11.446;2022-08-21T22:40:38;10.88;;;7.40;;
20597;SDS011;10457;48.770;11.446;2022-08-21T22:46:00;9.68;;;7.97;;
20597;SDS011;10457;48.770;11.446;2022-08-21T22:51:29;9.73;;;7.75;;
20597;SDS011;10457;48.770;11.446;2022-08-21T22:56:56;14.10;;;8.45;;
20597;SDS011;10457;48.770;11.446;2022-08-21T23:02:26;11.82;;;8.30;;
20597;SDS011;10457;48.770;11.446;2022-08-21T23:07:58;10.73;;;7.45;;
20597;SDS011;10457;48.770;11.446;2022-08-21T23:13:21;11.50;;;7.93;;
20597;SDS011;10457;48.770;11.446;2022-08-21T23:18:47;10.23;;;7.40;;
20597;SDS011;10457;48.770;11.446;2022-08-21T23:24:24;11.73;;;7.70;;
20597;SDS011;10457;48.770;11.446;2022-08-21T23:30:11;12.25;;;8.05;;
20597;SDS011;10457;48.770;11.446;2022-08-21T23:35:40;9.32;;;8.10;;
20597;SDS011;10457;48.770;11.446;2022-08-21T23:41:37;11.00;;;7.53;;
20597;SDS011;10457;48.770;11.446;2022-08-21T23:47:09;10.52;;;6.90;;
20597;SDS011;10457;48.770;11.446;2022-08-21T23:52:51;8.27;;;6.97;;
20597;SDS011;10457;48.770;11.446;2022-08-21T23:58:33;8.55;;;6.53;;
